Davis, California
Current Conditions -  °F | °C
As of 6:35 AM on Monday 26 Jan 2015 (Local Time) from KEDU Reporting Station
Overcast Overcast  
Wind Chill: 35°   Ceiling: 100
Heat Index: 39°   Visibility: 0.25mi
Dew Point: 39°   Wind: 6mph
Humidity: 100%   Direction: 350°N
Pressure: 30.07"   Gusts: NA
Location:  38.55°N, 121.74°W
Report Text: KEDU 261435Z AUTO 35005KT 1/4SM OVC001 04/04 A3007 RMK AO1
Loading
Personal Weather Stations






























Interactive Weather Map New forecast layout! Learn more

10-Day Weather Forecast

Advertisements
Track Severe Weather on mobile